This is the latest recevied weather packets stored in our database for station/object KQ4UPF. If no packets are shown the sender has not sent any weather packets the latest 1 day(s).
| Time | Temp. | Humidity | Pressure | Rain* | Wind** | Luminosity | Snow |
|---|---|---|---|---|---|---|---|
| 1777989118 | 21.11° C | 62% | 1015.6 hPa | 0 mm | 0.45 m/s, 118° | 485 W/m² | - |
| 1777988814 | 21.11° C | 63% | 1015.7 hPa | 0 mm | 0.89 m/s, 142° | 241 W/m² | - |
| 1777988512 | 21.11° C | 62% | 1015.6 hPa | 0 mm | 0.45 m/s, 142° | 177 W/m² | - |
| 1777988209 | 20.56° C | 64% | 1015.6 hPa | 0 mm | 0.89 m/s, 108° | 413 W/m² | - |
| 1777987905 | 20° C | 67% | 1015.9 hPa | 0 mm | 0.45 m/s, 94° | 423 W/m² | - |
| 1777987601 | 19.44° C | 67% | 1015.8 hPa | 0 mm | 0 m/s | 381 W/m² | - |
| 1777987299 | 19.44° C | 67% | 1015.8 hPa | 0 mm | 0.45 m/s, 57° | 364 W/m² | - |
| 1777986995 | 18.89° C | 69% | 1015.9 hPa | 0 mm | 0.45 m/s, 158° | 105 W/m² | - |
| 1777986693 | 18.89° C | 70% | 1016 hPa | 0 mm | 0.89 m/s, 143° | 307 W/m² | - |
| 1777986391 | 18.89° C | 70% | 1015.8 hPa | 0 mm | 0.89 m/s, 112° | 267 W/m² | - |
| 1777986089 | 18.33° C | 74% | 1015.9 hPa | 0 mm | 0 m/s | 210 W/m² | - |
| 1777985785 | 18.33° C | 76% | 1015.7 hPa | 0 mm | 0.45 m/s, 125° | 185 W/m² | - |
| 1777985482 | 17.78° C | 76% | 1015.6 hPa | 0 mm | 0.45 m/s, 165° | 95 W/m² | - |
| 1777985179 | 17.22° C | 76% | 1015.8 hPa | 0 mm | 0.89 m/s, 166° | 86 W/m² | - |
| 1777984875 | 16.67° C | 80% | 1015.7 hPa | 0 mm | 0.45 m/s, 156° | 138 W/m² | - |
| 1777984571 | 16.11° C | 79% | 1015.6 hPa | 0 mm | 0.45 m/s, 156° | 141 W/m² | - |
| 1777984268 | 15.56° C | 83% | 1015.7 hPa | 0 mm | 0.89 m/s, 140° | 146 W/m² | - |
| 1777983965 | 15° C | 84% | 1015.9 hPa | 0 mm | 0 m/s | 123 W/m² | - |
| 1777983662 | 14.44° C | 86% | 1015.7 hPa | 0 mm | 0.89 m/s, 139° | 118 W/m² | - |
| 1777983358 | 13.33° C | 89% | 1015.7 hPa | 0 mm | 0.89 m/s, 130° | 110 W/m² | - |
| 1777983055 | 12.78° C | 91% | 1015.7 hPa | 0 mm | 0.45 m/s, 129° | 88 W/m² | - |
| 1777982752 | 12.22° C | 93% | 1015.5 hPa | 0 mm | 0.45 m/s, 129° | 54 W/m² | - |
| 1777982448 | 12.22° C | 93% | 1015.4 hPa | 0 mm | 0.45 m/s, 129° | 38 W/m² | - |
| 1777982142 | 12.22° C | 93% | 1015.1 hPa | 0 mm | 0.45 m/s, 129° | 35 W/m² | - |
| 1777981840 | 11.67° C | 94% | 1015.1 hPa | 0 mm | 0 m/s | 28 W/m² | - |
* Rain latest hour (hover to see other rain measurements)
** Current wind speed in m/s (hover to see current wind gust speed)